createdAt,value
2018-11-10T00:01:41.360Z,64.95
2018-11-10T00:05:08.112Z,64.63
2018-11-10T00:08:33.603Z,64.97
2018-11-10T00:12:00.103Z,65.26
2018-11-10T00:15:25.771Z,65.02
2018-11-10T00:18:50.673Z,64.85
2018-11-10T00:22:15.388Z,64.87
2018-11-10T00:25:40.059Z,65.48
2018-11-10T00:29:04.862Z,64.94
2018-11-10T00:32:29.533Z,64.66
2018-11-10T00:35:54.705Z,65.90
2018-11-10T00:39:19.438Z,65.83
2018-11-10T00:42:44.658Z,65.64
2018-11-10T00:46:09.411Z,65.12
2018-11-10T00:49:34.345Z,64.64
2018-11-10T00:52:59.127Z,64.68
2018-11-10T00:56:23.895Z,64.68
2018-11-10T00:59:48.580Z,64.11
2018-11-10T01:03:13.322Z,63.86
2018-11-10T01:06:38.025Z,63.99
2018-11-10T01:10:02.672Z,64.55
2018-11-10T01:13:27.317Z,63.88
2018-11-10T01:16:52.032Z,63.55
2018-11-10T01:20:16.727Z,64.71
2018-11-10T01:23:41.461Z,64.82
2018-11-10T01:27:06.506Z,64.11
2018-11-10T01:30:31.194Z,64.67
2018-11-10T01:33:55.853Z,64.14
2018-11-10T01:37:20.534Z,64.59
2018-11-10T01:40:45.227Z,64.54
2018-11-10T01:44:10.133Z,64.82
2018-11-10T01:47:34.808Z,64.80
2018-11-10T01:50:59.464Z,64.50
2018-11-10T01:54:24.102Z,64.82
2018-11-10T01:57:48.816Z,64.02
2018-11-10T02:01:13.460Z,64.55
2018-11-10T02:04:38.137Z,63.82
2018-11-10T02:08:02.872Z,63.35
2018-11-10T02:11:27.582Z,62.89
2018-11-10T02:14:52.291Z,62.88
2018-11-10T02:18:16.953Z,63.01
2018-11-10T02:21:41.764Z,62.77
2018-11-10T02:25:07.870Z,61.99
2018-11-10T02:28:32.636Z,62.49
2018-11-10T02:31:57.327Z,62.12
2018-11-10T02:35:22.123Z,62.33
2018-11-10T02:38:46.903Z,62.12
2018-11-10T02:42:11.527Z,61.25
2018-11-10T02:45:36.227Z,62.04
2018-11-10T02:49:01.133Z,62.44
2018-11-10T02:52:25.802Z,61.74
2018-11-10T02:55:50.601Z,61.65
2018-11-10T02:59:15.256Z,62.12
2018-11-10T03:02:39.921Z,61.64
2018-11-10T03:06:04.721Z,62.03
2018-11-10T03:09:29.345Z,62.74
2018-11-10T03:12:54.077Z,61.73
2018-11-10T03:16:18.813Z,62.22
2018-11-10T03:19:43.558Z,62.47
2018-11-10T03:23:08.198Z,62.13
2018-11-10T03:26:32.968Z,62.62
2018-11-10T03:29:57.607Z,61.54
2018-11-10T03:33:22.318Z,61.12
2018-11-10T03:36:46.987Z,61.12
2018-11-10T03:40:12.747Z,60.46
2018-11-10T03:43:37.431Z,61.05
2018-11-10T03:47:02.066Z,60.56
2018-11-10T03:50:26.741Z,60.45
2018-11-10T03:53:51.407Z,60.10
2018-11-10T03:57:16.088Z,60.56
2018-11-10T04:00:40.748Z,60.12
2018-11-10T04:04:05.458Z,59.77
2018-11-10T04:07:30.140Z,59.50
2018-11-10T04:10:54.887Z,59.32
2018-11-10T04:14:19.614Z,59.57
2018-11-10T04:17:44.279Z,59.50
2018-11-10T04:21:08.991Z,59.02
2018-11-10T04:24:33.668Z,59.43
2018-11-10T04:27:58.285Z,58.95
2018-11-10T04:31:22.964Z,58.63
2018-11-10T04:34:47.656Z,58.45
2018-11-10T04:38:12.344Z,58.25
2018-11-10T04:41:37.203Z,57.99
2018-11-10T04:45:01.927Z,58.21
2018-11-10T04:48:26.639Z,57.82
2018-11-10T04:51:51.298Z,58.19
2018-11-10T04:55:15.973Z,57.06
2018-11-10T04:58:40.656Z,57.33
2018-11-10T05:02:05.377Z,57.37
2018-11-10T05:05:30.046Z,57.67
2018-11-10T05:08:54.760Z,57.53
2018-11-10T05:12:19.448Z,57.28
2018-11-10T05:15:44.142Z,57.48
2018-11-10T05:19:08.822Z,57.97
2018-11-10T05:22:33.551Z,57.83
2018-11-10T05:25:58.303Z,58.42
2018-11-10T05:29:23.000Z,58.17
2018-11-10T05:32:47.673Z,59.32
2018-11-10T05:36:12.353Z,61.74
2018-11-10T05:39:37.070Z,62.99
2018-11-10T05:43:01.723Z,65.15
2018-11-10T05:46:26.440Z,66.08
2018-11-10T05:49:51.138Z,68.28
2018-11-10T05:53:15.820Z,69.12
2018-11-10T05:56:40.514Z,69.62
2018-11-10T06:00:07.787Z,70.03
2018-11-10T06:03:32.511Z,70.83
2018-11-10T06:06:57.161Z,71.41
2018-11-10T06:10:22.099Z,71.48
2018-11-10T06:13:46.567Z,72.60
2018-11-10T06:17:11.244Z,72.83
2018-11-10T06:20:35.962Z,72.32
2018-11-10T06:24:00.622Z,72.96
2018-11-10T06:27:25.347Z,72.97
2018-11-10T06:30:50.014Z,73.10
2018-11-10T06:34:21.293Z,73.18
2018-11-10T06:37:46.056Z,73.29
2018-11-10T06:41:10.985Z,73.79
2018-11-10T06:44:35.719Z,73.61
2018-11-10T06:48:00.393Z,74.15
2018-11-10T06:51:25.151Z,74.01
2018-11-10T06:54:49.916Z,74.21
2018-11-10T06:58:14.596Z,74.03
2018-11-10T07:01:39.529Z,73.42
2018-11-10T07:05:04.551Z,72.15
2018-11-10T07:08:29.358Z,72.47
2018-11-10T07:11:54.074Z,71.96
2018-11-10T07:15:18.781Z,71.54
2018-11-10T07:18:43.518Z,72.03
2018-11-10T07:22:08.191Z,70.76
2018-11-10T07:25:32.897Z,70.23
2018-11-10T07:28:57.574Z,69.78
2018-11-10T07:32:25.524Z,69.95
2018-11-10T07:35:50.282Z,69.85
2018-11-10T07:39:14.983Z,69.34
2018-11-10T07:42:39.687Z,69.22
2018-11-10T07:46:04.463Z,69.19
2018-11-10T07:49:29.296Z,68.12
2018-11-10T07:52:53.886Z,69.64
2018-11-10T07:56:18.655Z,69.66
2018-11-10T07:59:43.354Z,68.65
2018-11-10T08:03:08.075Z,68.93
2018-11-10T08:06:32.787Z,69.60
2018-11-10T08:09:57.536Z,68.87
2018-11-10T08:13:22.279Z,68.57
2018-11-10T08:16:46.970Z,68.86
2018-11-10T08:20:12.301Z,68.18
2018-11-10T08:23:37.071Z,68.79
2018-11-10T08:27:01.830Z,68.28
2018-11-10T08:30:26.628Z,68.61
2018-11-10T08:33:51.380Z,69.00
2018-11-10T08:37:16.172Z,68.48
2018-11-10T08:40:40.877Z,68.16
2018-11-10T08:44:06.025Z,68.25
2018-11-10T08:47:30.739Z,68.09
2018-11-10T08:50:55.523Z,68.38
2018-11-10T08:54:20.278Z,67.51
2018-11-10T08:57:45.250Z,67.44
2018-11-10T09:01:10.048Z,67.47
2018-11-10T09:04:34.938Z,67.81
2018-11-10T09:07:59.645Z,67.68
2018-11-10T09:11:24.336Z,66.85
2018-11-10T09:14:49.144Z,68.19
2018-11-10T09:18:13.944Z,67.91
2018-11-10T09:21:38.726Z,67.49
2018-11-10T09:25:03.396Z,66.73
2018-11-10T09:28:28.228Z,67.95
2018-11-10T09:31:52.896Z,67.85
2018-11-10T09:35:18.220Z,67.94
2018-11-10T09:38:43.059Z,66.61
2018-11-10T09:42:07.887Z,67.65
2018-11-10T09:45:32.565Z,66.32
2018-11-10T09:48:57.246Z,66.85
2018-11-10T09:52:21.878Z,65.96
2018-11-10T09:55:46.654Z,66.81
2018-11-10T09:59:11.310Z,66.38
2018-11-10T10:02:36.269Z,66.61
2018-11-10T10:06:00.793Z,66.87
2018-11-10T10:09:25.540Z,65.64
2018-11-10T10:12:50.252Z,67.04
2018-11-10T10:16:15.085Z,66.91
2018-11-10T10:19:39.596Z,65.73
2018-11-10T10:23:04.270Z,66.07
2018-11-10T10:26:28.975Z,66.02
2018-11-10T10:29:53.684Z,66.00
2018-11-10T10:33:18.486Z,66.73
2018-11-10T10:36:43.163Z,66.79
2018-11-10T10:40:10.581Z,66.75
2018-11-10T10:43:36.566Z,66.63
2018-11-10T10:47:01.274Z,67.20
2018-11-10T10:50:25.987Z,67.89
2018-11-10T10:53:50.649Z,68.57
2018-11-10T10:57:15.395Z,69.47
2018-11-10T11:00:45.265Z,70.21
2018-11-10T11:04:15.178Z,70.64
2018-11-10T11:07:39.869Z,71.42
2018-11-10T11:11:04.574Z,71.03
2018-11-10T11:14:29.241Z,70.88
2018-11-10T11:17:53.935Z,70.97
2018-11-10T11:21:18.629Z,72.56
2018-11-10T11:24:43.313Z,73.70
2018-11-10T11:28:08.126Z,75.02
2018-11-10T11:31:32.802Z,75.29
2018-11-10T11:34:57.489Z,76.17
2018-11-10T11:38:22.490Z,77.73
2018-11-10T11:41:47.194Z,78.29
2018-11-10T11:45:12.817Z,79.25
2018-11-10T11:48:37.505Z,79.14
2018-11-10T11:52:02.225Z,80.13
2018-11-10T11:55:26.927Z,80.86
2018-11-10T11:58:51.686Z,80.74
2018-11-10T12:02:16.381Z,80.77
2018-11-10T12:05:41.059Z,81.32
2018-11-10T12:09:08.882Z,80.89
2018-11-10T12:12:33.584Z,81.23
2018-11-10T12:15:58.274Z,81.06
2018-11-10T12:19:23.029Z,81.36
2018-11-10T12:22:50.722Z,81.44
2018-11-10T12:26:15.434Z,81.31
2018-11-10T12:29:40.110Z,82.22
2018-11-10T12:33:04.835Z,82.26
2018-11-10T12:36:29.510Z,82.48
2018-11-10T12:39:54.181Z,82.23
2018-11-10T12:43:18.907Z,82.21
2018-11-10T12:46:43.592Z,82.37
2018-11-10T12:50:10.382Z,82.67
2018-11-10T12:53:35.096Z,82.14
2018-11-10T12:57:00.749Z,82.48
2018-11-10T13:00:25.504Z,81.71
2018-11-10T13:03:50.446Z,81.21
2018-11-10T13:07:15.206Z,81.14
2018-11-10T13:10:39.966Z,81.53
2018-11-10T13:14:04.696Z,81.95
2018-11-10T13:17:29.574Z,81.23
2018-11-10T13:20:54.172Z,81.48
2018-11-10T13:24:19.062Z,80.88
2018-11-10T13:27:43.639Z,80.94
2018-11-10T13:31:08.549Z,81.40
2018-11-10T13:34:33.251Z,81.78
2018-11-10T13:37:57.965Z,81.63
2018-11-10T13:41:22.733Z,82.33
2018-11-10T13:44:47.481Z,81.81
2018-11-10T13:48:12.204Z,81.80
2018-11-10T13:51:37.098Z,81.63
2018-11-10T13:55:01.702Z,81.65
2018-11-10T13:58:26.420Z,82.52
2018-11-10T14:01:51.244Z,82.55
2018-11-10T14:05:16.137Z,82.41
2018-11-10T14:08:40.879Z,82.84
2018-11-10T14:12:05.793Z,82.07
2018-11-10T14:15:30.674Z,82.33
2018-11-10T14:18:55.319Z,82.26
2018-11-10T14:22:19.990Z,83.13
2018-11-10T14:25:44.671Z,82.71
2018-11-10T14:29:09.403Z,82.74
2018-11-10T14:32:34.124Z,82.83
2018-11-10T14:35:58.871Z,83.08
2018-11-10T14:39:23.598Z,82.35
2018-11-10T14:42:48.290Z,83.11
2018-11-10T14:46:12.982Z,82.52
2018-11-10T14:49:37.682Z,82.84
2018-11-10T14:53:02.470Z,82.29
2018-11-10T14:56:27.043Z,82.27
2018-11-10T14:59:51.706Z,82.43
2018-11-10T15:03:16.389Z,82.92
2018-11-10T15:06:41.046Z,81.99
2018-11-10T15:10:08.090Z,82.23
2018-11-10T15:13:32.762Z,81.42
2018-11-10T15:16:57.439Z,81.20
2018-11-10T15:20:22.118Z,81.55
2018-11-10T15:23:46.907Z,81.22
2018-11-10T15:27:11.605Z,81.18
2018-11-10T15:30:36.291Z,81.38
2018-11-10T15:34:01.000Z,81.60
2018-11-10T15:37:25.766Z,81.05
2018-11-10T15:40:50.416Z,80.70
2018-11-10T15:44:15.102Z,79.15
2018-11-10T15:47:40.132Z,78.50
2018-11-10T15:51:04.824Z,78.05
2018-11-10T15:54:29.509Z,77.84
2018-11-10T15:57:54.174Z,77.25
2018-11-10T16:01:18.846Z,76.52
2018-11-10T16:04:43.501Z,76.83
2018-11-10T16:08:08.148Z,77.26
2018-11-10T16:11:32.770Z,77.92
2018-11-10T16:14:57.630Z,78.42
2018-11-10T16:18:22.324Z,79.91
2018-11-10T16:21:47.030Z,80.28
2018-11-10T16:25:11.720Z,79.84
2018-11-10T16:28:36.385Z,79.22
2018-11-10T16:32:01.005Z,79.50
2018-11-10T16:35:25.632Z,79.08
2018-11-10T16:38:50.489Z,79.09
2018-11-10T16:42:15.147Z,79.32
2018-11-10T16:45:39.814Z,78.64
2018-11-10T16:49:04.670Z,78.52
2018-11-10T16:52:36.054Z,78.27
2018-11-10T16:56:00.719Z,78.71
2018-11-10T16:59:25.434Z,77.71
2018-11-10T17:02:50.190Z,77.77
2018-11-10T17:06:14.942Z,77.84
2018-11-10T17:09:39.655Z,77.44
2018-11-10T17:13:04.356Z,77.34
2018-11-10T17:16:29.101Z,77.78
2018-11-10T17:19:53.769Z,77.19
2018-11-10T17:23:18.450Z,77.14
2018-11-10T17:26:43.106Z,77.84
2018-11-10T17:30:12.283Z,76.95
2018-11-10T17:33:36.929Z,75.61
2018-11-10T17:37:01.595Z,76.24
2018-11-10T17:40:26.353Z,75.74
2018-11-10T17:43:50.983Z,76.01
2018-11-10T17:47:15.631Z,76.07
2018-11-10T17:50:40.414Z,74.82
2018-11-10T17:54:05.279Z,73.93
2018-11-10T17:57:29.921Z,74.29
2018-11-10T18:00:54.692Z,74.46
2018-11-10T18:04:19.357Z,74.10
2018-11-10T18:07:44.116Z,73.17
2018-11-10T18:11:08.781Z,73.08
2018-11-10T18:14:33.514Z,73.10
2018-11-10T18:17:58.158Z,73.55
2018-11-10T18:21:22.815Z,72.89
2018-11-10T18:24:47.583Z,73.07
2018-11-10T18:28:12.243Z,73.57
2018-11-10T18:31:36.877Z,73.17
2018-11-10T18:35:01.562Z,72.66
2018-11-10T18:38:26.324Z,73.05
2018-11-10T18:41:50.987Z,72.95
2018-11-10T18:45:15.690Z,72.13
2018-11-10T18:48:40.530Z,72.63
2018-11-10T18:52:05.279Z,74.80
2018-11-10T18:55:29.910Z,75.19
2018-11-10T18:58:54.588Z,76.40
2018-11-10T19:02:19.276Z,75.76
2018-11-10T19:05:43.956Z,75.96
2018-11-10T19:09:12.008Z,76.99
2018-11-10T19:12:36.704Z,76.82
2018-11-10T19:16:01.411Z,77.09
2018-11-10T19:19:26.119Z,76.65
2018-11-10T19:22:50.839Z,77.53
2018-11-10T19:26:15.527Z,77.62
2018-11-10T19:29:40.290Z,77.75
2018-11-10T19:33:04.940Z,77.88
2018-11-10T19:36:29.645Z,78.30
2018-11-10T19:39:54.352Z,78.66
2018-11-10T19:43:19.033Z,79.34
2018-11-10T19:46:43.725Z,80.06
2018-11-10T19:50:08.935Z,79.86
2018-11-10T19:53:33.592Z,81.21
2018-11-10T19:56:58.263Z,81.76
2018-11-10T20:00:24.128Z,80.84
2018-11-10T20:03:48.767Z,80.96
2018-11-10T20:07:13.459Z,80.98
2018-11-10T20:10:38.169Z,81.34
2018-11-10T20:14:02.857Z,82.43
2018-11-10T20:17:27.503Z,81.84
2018-11-10T20:20:52.246Z,82.46
2018-11-10T20:24:16.960Z,82.65
2018-11-10T20:27:41.931Z,82.92
2018-11-10T20:31:06.636Z,83.03
2018-11-10T20:34:31.279Z,84.71
2018-11-10T20:37:56.832Z,84.57
2018-11-10T20:41:21.528Z,83.93
2018-11-10T20:44:46.216Z,84.13
2018-11-10T20:48:10.850Z,84.13
2018-11-10T20:51:35.584Z,83.19
2018-11-10T20:55:00.252Z,83.24
2018-11-10T20:58:24.944Z,83.54
2018-11-10T21:01:49.621Z,83.12
2018-11-10T21:05:14.896Z,83.79
2018-11-10T21:08:39.610Z,82.96
2018-11-10T21:12:04.252Z,83.21
2018-11-10T21:15:28.935Z,83.86
2018-11-10T21:18:53.627Z,83.32
2018-11-10T21:22:18.334Z,83.40
2018-11-10T21:25:43.081Z,83.08
2018-11-10T21:29:08.017Z,83.37
2018-11-10T21:32:32.665Z,83.14
2018-11-10T21:36:00.298Z,83.13
2018-11-10T21:39:24.952Z,82.79
2018-11-10T21:42:49.701Z,82.60
2018-11-10T21:46:14.371Z,82.65
2018-11-10T21:49:39.239Z,82.65
2018-11-10T21:53:03.792Z,82.34
2018-11-10T21:56:28.545Z,81.98
2018-11-10T21:59:53.191Z,82.36
2018-11-10T22:03:17.859Z,81.32
2018-11-10T22:06:42.549Z,81.38
2018-11-10T22:10:10.210Z,80.93
2018-11-10T22:13:35.045Z,81.31
2018-11-10T22:16:59.739Z,80.81
2018-11-10T22:20:25.206Z,80.56
2018-11-10T22:23:49.898Z,80.89
2018-11-10T22:27:14.621Z,80.89
2018-11-10T22:30:46.018Z,81.39
2018-11-10T22:34:10.780Z,81.27
2018-11-10T22:37:35.585Z,80.78
2018-11-10T22:41:00.283Z,81.04
2018-11-10T22:44:25.102Z,81.74
2018-11-10T22:47:50.026Z,81.61
2018-11-10T22:51:14.724Z,80.62
2018-11-10T22:54:39.523Z,79.90
2018-11-10T22:58:04.243Z,79.57
2018-11-10T23:01:32.353Z,78.59
2018-11-10T23:04:57.124Z,78.05
2018-11-10T23:08:21.941Z,77.07
2018-11-10T23:11:48.673Z,76.90
2018-11-10T23:15:13.808Z,75.17
2018-11-10T23:18:38.528Z,75.83
2018-11-10T23:22:03.393Z,75.22
2018-11-10T23:25:28.114Z,75.62
2018-11-10T23:28:54.219Z,75.45
2018-11-10T23:32:18.995Z,74.96
2018-11-10T23:35:50.281Z,74.68
2018-11-10T23:39:15.010Z,75.08
2018-11-10T23:42:40.096Z,74.60
2018-11-10T23:46:04.839Z,74.91
2018-11-10T23:49:29.575Z,74.56
2018-11-10T23:52:54.350Z,74.90
2018-11-10T23:56:19.100Z,74.06
2018-11-10T23:59:43.886Z,74.93
